sensor_id;sensor_type;location;lat;lon;timestamp;pressure;altitude;pressure_sealevel;temperature;humidity
72438;BME280;60444;43.534;-5.674;2023-05-11T00:01:30;102462.13;;;16.08;100.00
72438;BME280;60444;43.534;-5.674;2023-05-11T00:03:56;102443.63;;;15.94;100.00
72438;BME280;60444;43.534;-5.674;2023-05-11T00:06:22;102456.84;;;16.03;100.00
72438;BME280;60444;43.534;-5.674;2023-05-11T00:08:47;102446.34;;;15.94;100.00
72438;BME280;60444;43.534;-5.674;2023-05-11T00:11:13;102460.41;;;16.05;100.00
72438;BME280;60444;43.534;-5.674;2023-05-11T00:13:38;102451.03;;;15.92;100.00
72438;BME280;60444;43.534;-5.674;2023-05-11T00:16:04;102462.59;;;15.97;100.00
72438;BME280;60444;43.534;-5.674;2023-05-11T00:18:29;102462.47;;;16.00;100.00
72438;BME280;60444;43.534;-5.674;2023-05-11T00:20:55;102438.88;;;15.79;100.00
72438;BME280;60444;43.534;-5.674;2023-05-11T00:23:21;102457.81;;;15.82;100.00
72438;BME280;60444;43.534;-5.674;2023-05-11T00:25:46;102475.09;;;15.83;100.00
72438;BME280;60444;43.534;-5.674;2023-05-11T00:28:12;102463.28;;;15.82;100.00
72438;BME280;60444;43.534;-5.674;2023-05-11T00:30:39;102468.31;;;15.71;100.00
72438;BME280;60444;43.534;-5.674;2023-05-11T00:33:05;102467.38;;;15.72;100.00
72438;BME280;60444;43.534;-5.674;2023-05-11T00:35:30;102456.66;;;15.68;100.00
72438;BME280;60444;43.534;-5.674;2023-05-11T00:37:57;102460.28;;;15.68;100.00
72438;BME280;60444;43.534;-5.674;2023-05-11T00:40:23;102455.97;;;15.63;100.00
72438;BME280;60444;43.534;-5.674;2023-05-11T00:42:48;102441.03;;;15.51;100.00
72438;BME280;60444;43.534;-5.674;2023-05-11T00:45:14;102427.66;;;15.45;100.00
72438;BME280;60444;43.534;-5.674;2023-05-11T00:47:40;102464.03;;;15.66;100.00
72438;BME280;60444;43.534;-5.674;2023-05-11T00:50:06;102451.47;;;15.62;100.00
72438;BME280;60444;43.534;-5.674;2023-05-11T00:52:33;102433.56;;;15.56;100.00
72438;BME280;60444;43.534;-5.674;2023-05-11T00:54:59;102452.44;;;15.61;100.00
72438;BME280;60444;43.534;-5.674;2023-05-11T00:57:25;102448.69;;;15.63;100.00
72438;BME280;60444;43.534;-5.674;2023-05-11T00:59:50;102445.88;;;15.65;100.00
72438;BME280;60444;43.534;-5.674;2023-05-11T01:02:16;102437.88;;;15.60;100.00
72438;BME280;60444;43.534;-5.674;2023-05-11T01:04:42;102437.06;;;15.58;100.00
72438;BME280;60444;43.534;-5.674;2023-05-11T01:12:41;102425.56;;;15.51;100.00
72438;BME280;60444;43.534;-5.674;2023-05-11T01:15:17;102410.50;;;15.43;100.00
72438;BME280;60444;43.534;-5.674;2023-05-11T01:20:24;102414.31;;;15.37;100.00
72438;BME280;60444;43.534;-5.674;2023-05-11T01:28:22;102405.03;;;15.21;100.00
72438;BME280;60444;43.534;-5.674;2023-05-11T01:30:53;102418.47;;;15.26;100.00
72438;BME280;60444;43.534;-5.674;2023-05-11T01:33:30;102407.69;;;15.23;100.00
72438;BME280;60444;43.534;-5.674;2023-05-11T01:36:02;102408.69;;;15.20;100.00
72438;BME280;60444;43.534;-5.674;2023-05-11T01:38:32;102403.25;;;15.20;100.00
72438;BME280;60444;43.534;-5.674;2023-05-11T01:41:00;102406.69;;;15.25;100.00
72438;BME280;60444;43.534;-5.674;2023-05-11T01:43:32;102406.94;;;15.19;100.00
72438;BME280;60444;43.534;-5.674;2023-05-11T01:46:00;102414.06;;;15.22;100.00
72438;BME280;60444;43.534;-5.674;2023-05-11T01:48:30;102418.78;;;15.18;100.00
72438;BME280;60444;43.534;-5.674;2023-05-11T01:51:00;102415.56;;;15.09;100.00
72438;BME280;60444;43.534;-5.674;2023-05-11T01:53:33;102403.16;;;15.02;100.00
72438;BME280;60444;43.534;-5.674;2023-05-11T01:56:00;102417.72;;;15.01;100.00
72438;BME280;60444;43.534;-5.674;2023-05-11T01:58:27;102414.44;;;14.93;100.00
72438;BME280;60444;43.534;-5.674;2023-05-11T02:00:54;102412.66;;;14.92;100.00
72438;BME280;60444;43.534;-5.674;2023-05-11T02:03:20;102424.25;;;14.97;100.00
72438;BME280;60444;43.534;-5.674;2023-05-11T02:05:48;102418.63;;;15.01;100.00
72438;BME280;60444;43.534;-5.674;2023-05-11T02:08:16;102419.31;;;15.06;100.00
72438;BME280;60444;43.534;-5.674;2023-05-11T02:10:43;102415.66;;;15.07;100.00
72438;BME280;60444;43.534;-5.674;2023-05-11T02:13:10;102370.84;;;14.93;100.00
72438;BME280;60444;43.534;-5.674;2023-05-11T02:15:41;102379.81;;;14.95;100.00
72438;BME280;60444;43.534;-5.674;2023-05-11T02:18:11;102387.75;;;15.01;100.00
72438;BME280;60444;43.534;-5.674;2023-05-11T02:20:38;102383.38;;;14.97;100.00
72438;BME280;60444;43.534;-5.674;2023-05-11T02:23:06;102373.56;;;14.93;100.00
72438;BME280;60444;43.534;-5.674;2023-05-11T02:25:33;102357.09;;;14.74;100.00
72438;BME280;60444;43.534;-5.674;2023-05-11T02:27:58;102366.09;;;14.76;100.00
72438;BME280;60444;43.534;-5.674;2023-05-11T02:30:26;102384.09;;;14.80;100.00
72438;BME280;60444;43.534;-5.674;2023-05-11T02:32:53;102371.66;;;14.73;100.00
72438;BME280;60444;43.534;-5.674;2023-05-11T02:35:32;102396.81;;;14.80;100.00
72438;BME280;60444;43.534;-5.674;2023-05-11T02:38:01;102392.50;;;14.74;100.00
72438;BME280;60444;43.534;-5.674;2023-05-11T02:40:32;102381.03;;;14.66;100.00
72438;BME280;60444;43.534;-5.674;2023-05-11T02:43:11;102395.16;;;14.76;100.00
72438;BME280;60444;43.534;-5.674;2023-05-11T02:45:38;102402.41;;;14.77;100.00
72438;BME280;60444;43.534;-5.674;2023-05-11T02:48:08;102401.75;;;14.70;100.00
72438;BME280;60444;43.534;-5.674;2023-05-11T02:50:38;102385.53;;;14.67;100.00
72438;BME280;60444;43.534;-5.674;2023-05-11T02:53:10;102376.72;;;14.61;100.00
72438;BME280;60444;43.534;-5.674;2023-05-11T02:55:40;102375.91;;;14.59;100.00
72438;BME280;60444;43.534;-5.674;2023-05-11T02:58:09;102390.03;;;14.68;100.00
72438;BME280;60444;43.534;-5.674;2023-05-11T03:00:35;102373.50;;;14.51;100.00
72438;BME280;60444;43.534;-5.674;2023-05-11T03:03:00;102392.25;;;14.59;100.00
72438;BME280;60444;43.534;-5.674;2023-05-11T03:05:26;102390.47;;;14.57;100.00
72438;BME280;60444;43.534;-5.674;2023-05-11T03:07:56;102366.63;;;14.41;100.00
72438;BME280;60444;43.534;-5.674;2023-05-11T03:10:23;102363.91;;;14.41;100.00
72438;BME280;60444;43.534;-5.674;2023-05-11T03:12:50;102398.75;;;14.54;100.00
72438;BME280;60444;43.534;-5.674;2023-05-11T03:15:16;102382.78;;;14.45;100.00
72438;BME280;60444;43.534;-5.674;2023-05-11T03:17:42;102394.19;;;14.55;100.00
72438;BME280;60444;43.534;-5.674;2023-05-11T03:20:09;102401.28;;;14.59;100.00
72438;BME280;60444;43.534;-5.674;2023-05-11T03:22:36;102396.34;;;14.47;100.00
72438;BME280;60444;43.534;-5.674;2023-05-11T03:25:02;102390.41;;;14.59;100.00
72438;BME280;60444;43.534;-5.674;2023-05-11T03:27:30;102364.72;;;14.43;100.00
72438;BME280;60444;43.534;-5.674;2023-05-11T03:29:57;102384.47;;;14.49;100.00
72438;BME280;60444;43.534;-5.674;2023-05-11T03:32:24;102381.47;;;14.55;100.00
72438;BME280;60444;43.534;-5.674;2023-05-11T03:34:50;102385.38;;;14.48;100.00
72438;BME280;60444;43.534;-5.674;2023-05-11T03:37:17;102374.19;;;14.56;100.00
72438;BME280;60444;43.534;-5.674;2023-05-11T03:39:45;102379.72;;;14.54;100.00
72438;BME280;60444;43.534;-5.674;2023-05-11T03:42:13;102381.72;;;14.49;100.00
72438;BME280;60444;43.534;-5.674;2023-05-11T03:44:41;102376.28;;;14.49;100.00
72438;BME280;60444;43.534;-5.674;2023-05-11T03:47:09;102368.34;;;14.43;100.00
72438;BME280;60444;43.534;-5.674;2023-05-11T03:49:37;102369.13;;;14.47;100.00
72438;BME280;60444;43.534;-5.674;2023-05-11T03:52:04;102366.25;;;14.50;100.00
72438;BME280;60444;43.534;-5.674;2023-05-11T03:54:30;102346.13;;;14.32;100.00
72438;BME280;60444;43.534;-5.674;2023-05-11T03:56:56;102360.31;;;14.40;100.00
72438;BME280;60444;43.534;-5.674;2023-05-11T03:59:22;102356.56;;;14.43;100.00
72438;BME280;60444;43.534;-5.674;2023-05-11T04:01:48;102360.19;;;14.43;100.00
72438;BME280;60444;43.534;-5.674;2023-05-11T04:04:17;102346.72;;;14.40;100.00
72438;BME280;60444;43.534;-5.674;2023-05-11T04:06:43;102362.84;;;14.45;100.00
72438;BME280;60444;43.534;-5.674;2023-05-11T04:09:09;102351.06;;;14.44;100.00
72438;BME280;60444;43.534;-5.674;2023-05-11T04:11:38;102339.00;;;14.28;100.00
72438;BME280;60444;43.534;-5.674;2023-05-11T04:14:04;102349.44;;;14.40;100.00
72438;BME280;60444;43.534;-5.674;2023-05-11T04:16:29;102346.81;;;14.37;100.00
72438;BME280;60444;43.534;-5.674;2023-05-11T04:18:55;102362.78;;;14.46;100.00
72438;BME280;60444;43.534;-5.674;2023-05-11T04:21:21;102347.63;;;14.39;100.00
72438;BME280;60444;43.534;-5.674;2023-05-11T04:23:46;102336.28;;;14.28;100.00
72438;BME280;60444;43.534;-5.674;2023-05-11T04:26:11;102356.44;;;14.46;100.00
72438;BME280;60444;43.534;-5.674;2023-05-11T04:28:37;102342.25;;;14.38;100.00
72438;BME280;60444;43.534;-5.674;2023-05-11T04:31:03;102361.00;;;14.45;100.00
72438;BME280;60444;43.534;-5.674;2023-05-11T04:33:28;102355.56;;;14.45;100.00
72438;BME280;60444;43.534;-5.674;2023-05-11T04:35:54;102355.63;;;14.44;100.00
72438;BME280;60444;43.534;-5.674;2023-05-11T04:38:20;102340.44;;;14.38;100.00
72438;BME280;60444;43.534;-5.674;2023-05-11T04:40:47;102349.06;;;14.49;100.00
72438;BME280;60444;43.534;-5.674;2023-05-11T04:43:16;102346.63;;;14.42;100.00
72438;BME280;60444;43.534;-5.674;2023-05-11T04:45:51;102350.94;;;14.47;100.00
72438;BME280;60444;43.534;-5.674;2023-05-11T04:48:17;102349.28;;;14.43;100.00
72438;BME280;60444;43.534;-5.674;2023-05-11T04:50:42;102319.66;;;14.36;100.00
72438;BME280;60444;43.534;-5.674;2023-05-11T04:53:08;102356.88;;;14.57;100.00
72438;BME280;60444;43.534;-5.674;2023-05-11T04:55:34;102336.56;;;14.44;100.00
72438;BME280;60444;43.534;-5.674;2023-05-11T04:57:59;102355.13;;;14.56;100.00
72438;BME280;60444;43.534;-5.674;2023-05-11T05:00:25;102351.78;;;14.49;100.00
72438;BME280;60444;43.534;-5.674;2023-05-11T05:02:50;102324.97;;;14.39;100.00
72438;BME280;60444;43.534;-5.674;2023-05-11T05:05:16;102357.66;;;14.61;100.00
72438;BME280;60444;43.534;-5.674;2023-05-11T05:07:42;102355.81;;;14.61;100.00
72438;BME280;60444;43.534;-5.674;2023-05-11T05:10:08;102363.09;;;14.61;100.00
72438;BME280;60444;43.534;-5.674;2023-05-11T05:12:37;102347.09;;;14.53;100.00
72438;BME280;60444;43.534;-5.674;2023-05-11T05:15:04;102360.34;;;14.62;100.00
72438;BME280;60444;43.534;-5.674;2023-05-11T05:17:30;102359.31;;;14.65;100.00
72438;BME280;60444;43.534;-5.674;2023-05-11T05:19:56;102359.56;;;14.59;100.00
72438;BME280;60444;43.534;-5.674;2023-05-11T05:22:25;102353.94;;;14.63;100.00
72438;BME280;60444;43.534;-5.674;2023-05-11T05:24:50;102351.41;;;14.59;100.00
72438;BME280;60444;43.534;-5.674;2023-05-11T05:27:16;102337.13;;;14.52;100.00
72438;BME280;60444;43.534;-5.674;2023-05-11T05:29:41;102335.38;;;14.51;100.00
72438;BME280;60444;43.534;-5.674;2023-05-11T05:32:07;102359.44;;;14.62;100.00
72438;BME280;60444;43.534;-5.674;2023-05-11T05:34:33;102356.66;;;14.63;100.00
72438;BME280;60444;43.534;-5.674;2023-05-11T05:36:58;102365.81;;;14.61;100.00
72438;BME280;60444;43.534;-5.674;2023-05-11T05:39:24;102365.19;;;14.54;100.00
72438;BME280;60444;43.534;-5.674;2023-05-11T05:41:49;102367.75;;;14.59;100.00
72438;BME280;60444;43.534;-5.674;2023-05-11T05:44:15;102374.81;;;14.63;100.00
72438;BME280;60444;43.534;-5.674;2023-05-11T05:46:40;102369.44;;;14.61;100.00
72438;BME280;60444;43.534;-5.674;2023-05-11T05:49:06;102375.03;;;14.58;100.00
72438;BME280;60444;43.534;-5.674;2023-05-11T05:51:31;102373.28;;;14.55;100.00
72438;BME280;60444;43.534;-5.674;2023-05-11T05:53:57;102343.72;;;14.46;100.00
72438;BME280;60444;43.534;-5.674;2023-05-11T05:56:23;102368.50;;;14.62;100.00
72438;BME280;60444;43.534;-5.674;2023-05-11T05:58:48;102349.06;;;14.49;100.00
72438;BME280;60444;43.534;-5.674;2023-05-11T06:01:14;102378.44;;;14.63;100.00
72438;BME280;60444;43.534;-5.674;2023-05-11T06:03:39;102375.78;;;14.62;100.00
72438;BME280;60444;43.534;-5.674;2023-05-11T06:06:05;102364.28;;;14.53;100.00
72438;BME280;60444;43.534;-5.674;2023-05-11T06:08:31;102379.56;;;14.57;100.00
72438;BME280;60444;43.534;-5.674;2023-05-11T06:10:57;102375.03;;;14.58;100.00
72438;BME280;60444;43.534;-5.674;2023-05-11T06:13:23;102349.53;;;14.37;100.00
72438;BME280;60444;43.534;-5.674;2023-05-11T06:15:48;102385.00;;;14.57;100.00
72438;BME280;60444;43.534;-5.674;2023-05-11T06:18:14;102369.88;;;14.50;100.00
72438;BME280;60444;43.534;-5.674;2023-05-11T06:20:40;102377.84;;;14.55;100.00
72438;BME280;60444;43.534;-5.674;2023-05-11T06:23:05;102385.97;;;14.57;100.00
72438;BME280;60444;43.534;-5.674;2023-05-11T06:25:34;102389.25;;;14.65;100.00
72438;BME280;60444;43.534;-5.674;2023-05-11T06:28:00;102392.56;;;14.73;100.00
72438;BME280;60444;43.534;-5.674;2023-05-11T06:30:26;102380.84;;;14.71;100.00
72438;BME280;60444;43.534;-5.674;2023-05-11T06:32:51;102370.25;;;14.63;100.00
72438;BME280;60444;43.534;-5.674;2023-05-11T06:35:17;102391.44;;;14.78;100.00
72438;BME280;60444;43.534;-5.674;2023-05-11T06:37:42;102394.22;;;14.77;100.00
72438;BME280;60444;43.534;-5.674;2023-05-11T06:40:08;102385.34;;;14.72;100.00
72438;BME280;60444;43.534;-5.674;2023-05-11T06:42:34;102399.53;;;14.80;100.00
72438;BME280;60444;43.534;-5.674;2023-05-11T06:44:59;102370.25;;;14.63;100.00
72438;BME280;60444;43.534;-5.674;2023-05-11T06:47:25;102403.16;;;14.80;100.00
72438;BME280;60444;43.534;-5.674;2023-05-11T06:49:51;102404.03;;;14.81;100.00
72438;BME280;60444;43.534;-5.674;2023-05-11T06:52:16;102374.38;;;14.73;100.00
72438;BME280;60444;43.534;-5.674;2023-05-11T06:54:42;102393.03;;;14.84;100.00
72438;BME280;60444;43.534;-5.674;2023-05-11T06:57:07;102401.88;;;14.89;100.00
72438;BME280;60444;43.534;-5.674;2023-05-11T06:59:33;102380.63;;;14.77;100.00
72438;BME280;60444;43.534;-5.674;2023-05-11T07:01:58;102385.84;;;14.81;100.00
72438;BME280;60444;43.534;-5.674;2023-05-11T07:04:24;102396.16;;;14.95;100.00
72438;BME280;60444;43.534;-5.674;2023-05-11T07:06:50;102364.88;;;14.83;100.00
72438;BME280;60444;43.534;-5.674;2023-05-11T07:09:15;102387.19;;;14.93;100.00
72438;BME280;60444;43.534;-5.674;2023-05-11T07:11:41;102398.72;;;14.99;100.00
72438;BME280;60444;43.534;-5.674;2023-05-11T07:14:06;102401.38;;;15.01;100.00
72438;BME280;60444;43.534;-5.674;2023-05-11T07:16:35;102402.19;;;15.03;100.00
72438;BME280;60444;43.534;-5.674;2023-05-11T07:19:04;102388.88;;;14.95;100.00
72438;BME280;60444;43.534;-5.674;2023-05-11T07:21:30;102387.00;;;14.97;100.00
72438;BME280;60444;43.534;-5.674;2023-05-11T07:23:57;102372.84;;;14.88;100.00
72438;BME280;60444;43.534;-5.674;2023-05-11T07:26:23;102372.75;;;14.91;100.00
72438;BME280;60444;43.534;-5.674;2023-05-11T07:28:49;102405.50;;;15.11;100.00
72438;BME280;60444;43.534;-5.674;2023-05-11T07:31:14;102398.94;;;15.15;100.00
72438;BME280;60444;43.534;-5.674;2023-05-11T07:33:39;102393.50;;;15.15;100.00
72438;BME280;60444;43.534;-5.674;2023-05-11T07:36:06;102393.38;;;15.18;100.00
72438;BME280;60444;43.534;-5.674;2023-05-11T07:38:32;102376.59;;;15.07;100.00
72438;BME280;60444;43.534;-5.674;2023-05-11T07:40:58;102390.66;;;15.18;100.00
72438;BME280;60444;43.534;-5.674;2023-05-11T07:43:23;102402.91;;;15.28;100.00
72438;BME280;60444;43.534;-5.674;2023-05-11T07:45:49;102400.19;;;15.28;100.00
72438;BME280;60444;43.534;-5.674;2023-05-11T07:48:14;102368.03;;;15.16;100.00
72438;BME280;60444;43.534;-5.674;2023-05-11T07:50:41;102403.56;;;15.34;100.00
72438;BME280;60444;43.534;-5.674;2023-05-11T07:53:06;102378.53;;;15.25;100.00
72438;BME280;60444;43.534;-5.674;2023-05-11T07:55:32;102368.63;;;15.22;100.00
72438;BME280;60444;43.534;-5.674;2023-05-11T07:57:58;102370.59;;;15.19;100.00
72438;BME280;60444;43.534;-5.674;2023-05-11T08:00:26;102408.69;;;15.42;100.00
72438;BME280;60444;43.534;-5.674;2023-05-11T08:02:52;102392.66;;;15.34;100.00
72438;BME280;60444;43.534;-5.674;2023-05-11T08:05:18;102394.59;;;15.31;100.00
72438;BME280;60444;43.534;-5.674;2023-05-11T08:07:44;102411.50;;;15.40;100.00
72438;BME280;60444;43.534;-5.674;2023-05-11T08:10:10;102401.59;;;15.38;100.00
72438;BME280;60444;43.534;-5.674;2023-05-11T08:12:36;102398.91;;;15.36;100.00
72438;BME280;60444;43.534;-5.674;2023-05-11T08:15:03;102397.16;;;15.35;100.00
72438;BME280;60444;43.534;-5.674;2023-05-11T08:17:29;102400.06;;;15.31;100.00
72438;BME280;60444;43.534;-5.674;2023-05-11T08:19:54;102377.03;;;15.18;100.00
72438;BME280;60444;43.534;-5.674;2023-05-11T08:22:21;102394.75;;;15.28;100.00
72438;BME280;60444;43.534;-5.674;2023-05-11T08:24:46;102402.75;;;15.32;100.00
72438;BME280;60444;43.534;-5.674;2023-05-11T08:27:12;102398.91;;;15.36;100.00
72438;BME280;60444;43.534;-5.674;2023-05-11T08:29:39;102362.81;;;15.10;100.00
72438;BME280;60444;43.534;-5.674;2023-05-11T08:32:05;102394.59;;;15.31;100.00
72438;BME280;60444;43.534;-5.674;2023-05-11T08:34:30;102386.72;;;15.25;100.00
72438;BME280;60444;43.534;-5.674;2023-05-11T08:36:56;102408.81;;;15.39;100.00
72438;BME280;60444;43.534;-5.674;2023-05-11T08:39:22;102411.53;;;15.39;100.00
72438;BME280;60444;43.534;-5.674;2023-05-11T08:41:48;102402.53;;;15.37;100.00
72438;BME280;60444;43.534;-5.674;2023-05-11T08:44:17;102401.47;;;15.41;100.00
72438;BME280;60444;43.534;-5.674;2023-05-11T08:46:45;102398.34;;;15.50;100.00
72438;BME280;60444;43.534;-5.674;2023-05-11T08:49:13;102387.59;;;15.47;100.00
72438;BME280;60444;43.534;-5.674;2023-05-11T08:51:39;102399.69;;;15.60;100.00
72438;BME280;60444;43.534;-5.674;2023-05-11T08:54:05;102398.53;;;15.66;100.00
72438;BME280;60444;43.534;-5.674;2023-05-11T08:56:33;102394.53;;;15.74;100.00
72438;BME280;60444;43.534;-5.674;2023-05-11T08:59:03;102395.06;;;15.82;100.00
72438;BME280;60444;43.534;-5.674;2023-05-11T09:01:29;102391.91;;;15.91;100.00
72438;BME280;60444;43.534;-5.674;2023-05-11T09:03:56;102298.69;;;15.43;100.00
72438;BME280;60444;43.534;-5.674;2023-05-11T09:06:23;102392.81;;;16.10;100.00
72438;BME280;60444;43.534;-5.674;2023-05-11T09:08:49;102392.41;;;16.19;100.00
72438;BME280;60444;43.534;-5.674;2023-05-11T09:11:15;102397.31;;;16.31;100.00
72438;BME280;60444;43.534;-5.674;2023-05-11T09:13:41;102396.84;;;16.40;100.00
72438;BME280;60444;43.534;-5.674;2023-05-11T09:16:06;102403.59;;;16.52;100.00
72438;BME280;60444;43.534;-5.674;2023-05-11T09:18:32;102390.66;;;16.55;100.00
72438;BME280;60444;43.534;-5.674;2023-05-11T09:21:00;102391.66;;;16.54;100.00
72438;BME280;60444;43.534;-5.674;2023-05-11T09:23:26;102315.38;;;16.13;100.00
72438;BME280;60444;43.534;-5.674;2023-05-11T09:25:52;102358.63;;;16.40;100.00
72438;BME280;60444;43.534;-5.674;2023-05-11T09:28:25;102387.72;;;16.60;100.00
72438;BME280;60444;43.534;-5.674;2023-05-11T09:30:51;102380.47;;;16.40;100.00
72438;BME280;60444;43.534;-5.674;2023-05-11T09:33:21;102402.72;;;16.51;100.00
72438;BME280;60444;43.534;-5.674;2023-05-11T09:35:48;102394.88;;;16.44;100.00
72438;BME280;60444;43.534;-5.674;2023-05-11T09:38:15;102400.00;;;16.51;100.00
72438;BME280;60444;43.534;-5.674;2023-05-11T09:40:53;102400.94;;;16.50;100.00
72438;BME280;60444;43.534;-5.674;2023-05-11T09:43:23;102382.47;;;16.55;100.00
72438;BME280;60444;43.534;-5.674;2023-05-11T09:45:51;102391.19;;;16.64;100.00
72438;BME280;60444;43.534;-5.674;2023-05-11T09:50:49;102382.19;;;16.80;100.00
72438;BME280;60444;43.534;-5.674;2023-05-11T09:53:15;102377.25;;;16.70;100.00
72438;BME280;60444;43.534;-5.674;2023-05-11T09:55:52;102397.97;;;16.74;100.00
72438;BME280;60444;43.534;-5.674;2023-05-11T09:58:17;102371.50;;;16.57;100.00
72438;BME280;60444;43.534;-5.674;2023-05-11T10:00:50;102373.69;;;16.68;100.00
72438;BME280;60444;43.534;-5.674;2023-05-11T10:03:17;102396.22;;;16.73;100.00
72438;BME280;60444;43.534;-5.674;2023-05-11T10:05:57;102390.53;;;16.58;100.00
72438;BME280;60444;43.534;-5.674;2023-05-11T10:08:30;102391.84;;;16.69;100.00
72438;BME280;60444;43.534;-5.674;2023-05-11T10:11:00;102377.63;;;16.62;100.00
72438;BME280;60444;43.534;-5.674;2023-05-11T10:13:27;102363.31;;;16.57;100.00
72438;BME280;60444;43.534;-5.674;2023-05-11T10:15:54;102391.31;;;16.79;100.00
72438;BME280;60444;43.534;-5.674;2023-05-11T10:18:21;102382.75;;;16.87;100.00
72438;BME280;60444;43.534;-5.674;2023-05-11T10:20:47;102371.50;;;16.93;100.00
72438;BME280;60444;43.534;-5.674;2023-05-11T10:23:13;102383.81;;;17.01;100.00
72438;BME280;60444;43.534;-5.674;2023-05-11T10:25:39;102381.72;;;17.06;100.00
72438;BME280;60444;43.534;-5.674;2023-05-11T10:28:05;102380.41;;;17.15;100.00
72438;BME280;60444;43.534;-5.674;2023-05-11T10:30:32;102360.03;;;17.03;100.00
72438;BME280;60444;43.534;-5.674;2023-05-11T10:32:59;102373.06;;;17.15;100.00
72438;BME280;60444;43.534;-5.674;2023-05-11T10:35:25;102377.97;;;17.26;100.00
72438;BME280;60444;43.534;-5.674;2023-05-11T10:37:51;102360.84;;;17.05;100.00
72438;BME280;60444;43.534;-5.674;2023-05-11T10:40:17;102380.22;;;17.18;100.00
72438;BME280;60444;43.534;-5.674;2023-05-11T10:45:56;102382.25;;;17.14;100.00
72438;BME280;60444;43.534;-5.674;2023-05-11T10:48:52;102375.22;;;17.09;100.00
72438;BME280;60444;43.534;-5.674;2023-05-11T10:59:42;102401.06;;;16.85;100.00
72438;BME280;60444;43.534;-5.674;2023-05-11T11:02:09;102395.47;;;16.88;100.00
72438;BME280;60444;43.534;-5.674;2023-05-11T11:04:47;102392.78;;;16.86;100.00
72438;BME280;60444;43.534;-5.674;2023-05-11T11:07:13;102367.03;;;16.73;100.00
72438;BME280;60444;43.534;-5.674;2023-05-11T11:09:50;102386.72;;;16.98;100.00
72438;BME280;60444;43.534;-5.674;2023-05-11T11:12:17;102391.47;;;16.95;100.00
72438;BME280;60444;43.534;-5.674;2023-05-11T11:14:56;102368.94;;;16.90;100.00
72438;BME280;60444;43.534;-5.674;2023-05-11T11:17:26;102378.13;;;17.06;100.00
72438;BME280;60444;43.534;-5.674;2023-05-11T11:19:55;102385.53;;;17.04;100.00
72438;BME280;60444;43.534;-5.674;2023-05-11T11:24:59;102367.59;;;16.98;100.00
72438;BME280;60444;43.534;-5.674;2023-05-11T11:30:19;102370.06;;;17.03;100.00
72438;BME280;60444;43.534;-5.674;2023-05-11T11:32:46;102376.19;;;17.08;100.00
72438;BME280;60444;43.534;-5.674;2023-05-11T11:38:14;102355.31;;;16.88;100.00
72438;BME280;60444;43.534;-5.674;2023-05-11T11:40:47;102366.22;;;17.07;100.00
72438;BME280;60444;43.534;-5.674;2023-05-11T11:43:20;102345.84;;;16.95;100.00
72438;BME280;60444;43.534;-5.674;2023-05-11T11:46:06;102359.28;;;17.00;100.00
72438;BME280;60444;43.534;-5.674;2023-05-11T11:48:36;102359.13;;;17.03;100.00
72438;BME280;60444;43.534;-5.674;2023-05-11T11:51:06;102357.63;;;17.14;100.00
72438;BME280;60444;43.534;-5.674;2023-05-11T11:58:59;102351.19;;;16.98;100.00
72438;BME280;60444;43.534;-5.674;2023-05-11T12:01:35;102330.50;;;16.93;100.00
72438;BME280;60444;43.534;-5.674;2023-05-11T12:04:08;102348.84;;;17.08;100.00
72438;BME280;60444;43.534;-5.674;2023-05-11T12:06:38;102353.56;;;17.04;100.00
72438;BME280;60444;43.534;-5.674;2023-05-11T12:09:05;102335.81;;;16.96;100.00
72438;BME280;60444;43.534;-5.674;2023-05-11T12:11:31;102348.19;;;17.03;100.00
72438;BME280;60444;43.534;-5.674;2023-05-11T12:13:58;102349.91;;;17.05;100.00
72438;BME280;60444;43.534;-5.674;2023-05-11T12:16:24;102349.91;;;17.05;100.00
72438;BME280;60444;43.534;-5.674;2023-05-11T12:18:55;102327.44;;;16.99;100.00
72438;BME280;60444;43.534;-5.674;2023-05-11T12:21:26;102348.78;;;17.09;100.00
72438;BME280;60444;43.534;-5.674;2023-05-11T12:23:59;102337.84;;;17.09;100.00
72438;BME280;60444;43.534;-5.674;2023-05-11T12:26:26;102339.38;;;17.15;100.00
72438;BME280;60444;43.534;-5.674;2023-05-11T12:29:14;102316.03;;;16.91;100.00
72438;BME280;60444;43.534;-5.674;2023-05-11T12:31:44;102341.31;;;17.13;100.00
72438;BME280;60444;43.534;-5.674;2023-05-11T12:34:18;102327.03;;;17.06;100.00
72438;BME280;60444;43.534;-5.674;2023-05-11T12:36:44;102309.09;;;17.01;100.00
72438;BME280;60444;43.534;-5.674;2023-05-11T12:39:21;102332.75;;;17.19;100.00
72438;BME280;60444;43.534;-5.674;2023-05-11T12:41:48;102335.66;;;17.16;100.00
72438;BME280;60444;43.534;-5.674;2023-05-11T12:44:15;102339.03;;;17.21;100.00
72438;BME280;60444;43.534;-5.674;2023-05-11T12:46:42;102315.25;;;17.06;100.00
72438;BME280;60444;43.534;-5.674;2023-05-11T12:49:08;102320.63;;;17.24;100.00
72438;BME280;60444;43.534;-5.674;2023-05-11T12:54:09;102336.16;;;17.24;100.00
72438;BME280;60444;43.534;-5.674;2023-05-11T12:56:46;102334.06;;;17.29;100.00
72438;BME280;60444;43.534;-5.674;2023-05-11T12:59:30;102324.25;;;17.42;100.00
72438;BME280;60444;43.534;-5.674;2023-05-11T13:02:16;102304.63;;;17.34;100.00
72438;BME280;60444;43.534;-5.674;2023-05-11T13:04:43;102325.47;;;17.53;100.00
72438;BME280;60444;43.534;-5.674;2023-05-11T13:07:10;102315.63;;;17.67;100.00
72438;BME280;60444;43.534;-5.674;2023-05-11T13:09:36;102311.06;;;17.67;100.00
72438;BME280;60444;43.534;-5.674;2023-05-11T13:14:33;102311.34;;;17.78;100.00
72438;BME280;60444;43.534;-5.674;2023-05-11T13:16:58;102294.56;;;17.84;100.00
72438;BME280;60444;43.534;-5.674;2023-05-11T13:19:28;102315.28;;;18.05;100.00